createdAt,value
2018-03-15T00:00:10.687Z,996.3
2018-03-15T00:01:10.665Z,996.29
2018-03-15T00:02:10.643Z,996.31
2018-03-15T00:03:10.664Z,996.3
2018-03-15T00:04:10.598Z,996.3
2018-03-15T00:05:10.578Z,996.31
2018-03-15T00:06:10.556Z,996.27
2018-03-15T00:07:10.534Z,996.26
2018-03-15T00:08:10.512Z,996.28
2018-03-15T00:09:10.491Z,996.24
2018-03-15T00:10:10.468Z,996.22
2018-03-15T00:11:10.447Z,996.18
2018-03-15T00:12:10.428Z,996.18
2018-03-15T00:13:10.402Z,996.19
2018-03-15T00:14:10.382Z,996.18
2018-03-15T00:15:10.357Z,996.16
2018-03-15T00:16:10.337Z,996.2
2018-03-15T00:17:10.316Z,996.15
2018-03-15T00:18:10.299Z,996.14
2018-03-15T00:19:10.272Z,996.13
2018-03-15T00:20:10.252Z,996.14
2018-03-15T00:21:10.228Z,996.12
2018-03-15T00:22:10.206Z,996.13
2018-03-15T00:23:10.184Z,996.1
2018-03-15T00:24:10.162Z,996.08
2018-03-15T00:25:10.140Z,996.08
2018-03-15T00:26:10.115Z,996.09
2018-03-15T00:27:10.097Z,996.1
2018-03-15T00:28:10.075Z,996.1
2018-03-15T00:29:10.051Z,996.05
2018-03-15T00:30:10.027Z,996.05
2018-03-15T00:31:10.009Z,996.03
2018-03-15T00:32:09.986Z,996.05
2018-03-15T00:33:09.963Z,995.99
2018-03-15T00:34:09.941Z,996
2018-03-15T00:35:09.921Z,995.98
2018-03-15T00:36:09.896Z,996
2018-03-15T00:37:09.873Z,995.96
2018-03-15T00:38:09.852Z,995.92
2018-03-15T00:39:09.830Z,995.96
2018-03-15T00:40:09.810Z,995.95
2018-03-15T00:41:09.787Z,995.93
2018-03-15T00:42:09.761Z,995.92
2018-03-15T00:43:09.742Z,995.94
2018-03-15T00:44:09.723Z,995.96
2018-03-15T00:45:09.697Z,995.91
2018-03-15T00:46:09.678Z,995.93
2018-03-15T00:47:09.662Z,995.92
2018-03-15T00:48:09.630Z,995.91
2018-03-15T00:49:09.608Z,995.87
2018-03-15T00:50:09.586Z,995.89
2018-03-15T00:51:09.564Z,995.85
2018-03-15T00:52:09.540Z,995.81
2018-03-15T00:53:09.519Z,995.82
2018-03-15T00:54:09.498Z,995.78
2018-03-15T00:55:09.475Z,995.79
2018-03-15T00:56:09.451Z,995.77
2018-03-15T00:57:09.430Z,995.72
2018-03-15T00:58:09.408Z,995.72
2018-03-15T00:59:09.412Z,995.7
2018-03-15T01:00:09.365Z,995.65
2018-03-15T01:01:09.350Z,995.71
2018-03-15T01:02:09.320Z,995.65
2018-03-15T01:03:09.302Z,995.69
2018-03-15T01:04:09.280Z,995.64
2018-03-15T01:05:09.255Z,995.62
2018-03-15T01:06:09.229Z,995.63
2018-03-15T01:07:09.207Z,995.65
2018-03-15T01:08:09.184Z,995.61
2018-03-15T01:09:09.163Z,995.61
2018-03-15T01:10:09.142Z,995.57
2018-03-15T01:11:09.119Z,995.59
2018-03-15T01:12:09.096Z,995.58
2018-03-15T01:13:09.074Z,995.56
2018-03-15T01:14:09.054Z,995.55
2018-03-15T01:15:09.031Z,995.53
2018-03-15T01:16:09.009Z,995.55
2018-03-15T01:17:08.983Z,995.53
2018-03-15T01:18:08.962Z,995.46
2018-03-15T01:19:08.941Z,995.48
2018-03-15T01:20:08.919Z,995.42
2018-03-15T01:21:08.896Z,995.43
2018-03-15T01:22:08.874Z,995.41
2018-03-15T01:23:08.852Z,995.39
2018-03-15T01:24:08.829Z,995.34
2018-03-15T01:25:08.809Z,995.33
2018-03-15T01:26:08.784Z,995.31
2018-03-15T01:27:08.762Z,995.32
2018-03-15T01:28:08.739Z,995.32
2018-03-15T01:29:08.718Z,995.31
2018-03-15T01:30:08.695Z,995.31
2018-03-15T01:31:08.674Z,995.32
2018-03-15T01:32:08.651Z,995.29
2018-03-15T01:33:08.626Z,995.26
2018-03-15T01:34:08.608Z,995.24
2018-03-15T01:35:08.587Z,995.2
2018-03-15T01:36:08.560Z,995.17
2018-03-15T01:37:08.537Z,995.19
2018-03-15T01:38:08.514Z,995.2
2018-03-15T01:39:08.492Z,995.17
2018-03-15T01:40:08.475Z,995.17
2018-03-15T01:41:08.447Z,995.14
2018-03-15T01:42:08.425Z,995.15
2018-03-15T01:43:08.404Z,995.13
2018-03-15T01:44:08.381Z,995.12
2018-03-15T01:45:08.357Z,995.11
2018-03-15T01:46:08.536Z,995.05
2018-03-15T01:47:08.314Z,995.06
2018-03-15T01:48:08.293Z,995.07
2018-03-15T01:49:08.269Z,995.04
2018-03-15T01:50:08.247Z,995.07
2018-03-15T01:51:08.222Z,995.03
2018-03-15T01:52:08.200Z,995.04
2018-03-15T01:53:08.183Z,994.99
2018-03-15T01:54:08.157Z,994.99
2018-03-15T01:55:08.139Z,995.03
2018-03-15T01:56:08.111Z,994.97
2018-03-15T01:57:08.088Z,994.99
2018-03-15T01:58:08.065Z,995.01
2018-03-15T01:59:08.045Z,995
2018-03-15T02:00:08.020Z,994.99
2018-03-15T02:01:08.003Z,994.99
2018-03-15T02:02:07.979Z,994.99
2018-03-15T02:03:07.954Z,994.97
2018-03-15T02:04:07.930Z,995
2018-03-15T02:05:07.918Z,994.99
2018-03-15T02:06:07.884Z,994.95
2018-03-15T02:07:07.873Z,994.97
2018-03-15T02:08:07.841Z,995.03
2018-03-15T02:09:07.850Z,995
2018-03-15T02:10:07.795Z,995.01
2018-03-15T02:11:07.779Z,994.98
2018-03-15T02:12:07.750Z,994.88
2018-03-15T02:13:07.746Z,994.89
2018-03-15T02:14:07.705Z,994.88
2018-03-15T02:15:07.683Z,994.88
2018-03-15T02:16:07.663Z,994.82
2018-03-15T02:17:07.635Z,994.8
2018-03-15T02:18:07.614Z,994.83
2018-03-15T02:19:07.590Z,994.78
2018-03-15T02:20:07.573Z,994.78
2018-03-15T02:21:07.544Z,994.79
2018-03-15T02:22:07.525Z,994.74
2018-03-15T02:23:07.501Z,994.7
2018-03-15T02:24:07.477Z,994.68
2018-03-15T02:25:07.453Z,994.66
2018-03-15T02:26:07.433Z,994.69
2018-03-15T02:27:07.409Z,994.6
2018-03-15T02:28:07.386Z,994.62
2018-03-15T02:29:07.366Z,994.6
2018-03-15T02:30:07.340Z,994.59
2018-03-15T02:31:07.318Z,994.56
2018-03-15T02:32:07.297Z,994.58
2018-03-15T02:33:07.273Z,994.58
2018-03-15T02:34:07.249Z,994.55
2018-03-15T02:35:07.229Z,994.52
2018-03-15T02:36:07.206Z,994.47
2018-03-15T02:37:07.183Z,994.49
2018-03-15T02:38:07.160Z,994.53
2018-03-15T02:39:07.143Z,994.51
2018-03-15T02:40:07.115Z,994.51
2018-03-15T02:41:07.090Z,994.48
2018-03-15T02:42:07.069Z,994.52
2018-03-15T02:43:07.052Z,994.52
2018-03-15T02:44:07.023Z,994.5
2018-03-15T02:45:07.002Z,994.56
2018-03-15T02:46:06.978Z,994.54
2018-03-15T02:47:06.956Z,994.59
2018-03-15T02:48:06.935Z,994.59
2018-03-15T02:49:06.912Z,994.57
2018-03-15T02:50:06.888Z,994.54
2018-03-15T02:51:06.865Z,994.55
2018-03-15T02:52:06.843Z,994.48
2018-03-15T02:53:06.821Z,994.47
2018-03-15T02:54:06.797Z,994.48
2018-03-15T02:55:06.776Z,994.47
2018-03-15T02:56:06.755Z,994.44
2018-03-15T02:57:06.729Z,994.43
2018-03-15T02:58:06.708Z,994.39
2018-03-15T02:59:06.684Z,994.38
2018-03-15T03:00:06.664Z,994.38
2018-03-15T03:01:06.638Z,994.39
2018-03-15T03:02:06.616Z,994.41
2018-03-15T03:03:06.660Z,994.38
2018-03-15T03:04:06.570Z,994.38
2018-03-15T03:05:06.546Z,994.32
2018-03-15T03:06:06.526Z,994.31
2018-03-15T03:07:06.502Z,994.28
2018-03-15T03:08:06.478Z,994.26
2018-03-15T03:09:06.458Z,994.26
2018-03-15T03:10:06.433Z,994.24
2018-03-15T03:11:06.411Z,994.18
2018-03-15T03:12:06.389Z,994.23
2018-03-15T03:13:06.368Z,994.22
2018-03-15T03:14:06.343Z,994.24
2018-03-15T03:15:06.322Z,994.19
2018-03-15T03:16:06.302Z,994.18
2018-03-15T03:17:06.276Z,994.19
2018-03-15T03:18:06.253Z,994.24
2018-03-15T03:19:06.230Z,994.25
2018-03-15T03:20:06.206Z,994.23
2018-03-15T03:21:06.183Z,994.22
2018-03-15T03:22:06.162Z,994.25
2018-03-15T03:23:06.138Z,994.18
2018-03-15T03:24:06.119Z,994.12
2018-03-15T03:25:06.091Z,994.11
2018-03-15T03:26:06.071Z,994.1
2018-03-15T03:27:06.046Z,994.14
2018-03-15T03:28:06.025Z,994.12
2018-03-15T03:29:06.002Z,994.1
2018-03-15T03:30:05.982Z,994.13
2018-03-15T03:31:05.961Z,994.12
2018-03-15T03:32:05.933Z,994.09
2018-03-15T03:33:05.925Z,994.09
2018-03-15T03:34:05.889Z,994.04
2018-03-15T03:35:05.866Z,994.05
2018-03-15T03:36:05.842Z,994.02
2018-03-15T03:37:05.820Z,994.02
2018-03-15T03:38:05.799Z,994.08
2018-03-15T03:39:05.775Z,994.04
2018-03-15T03:40:05.751Z,994.06
2018-03-15T03:41:05.730Z,994.07
2018-03-15T03:42:05.708Z,994.06
2018-03-15T03:43:05.684Z,994.04
2018-03-15T03:44:05.661Z,994.02
2018-03-15T03:45:05.642Z,994.02
2018-03-15T03:46:05.818Z,993.98
2018-03-15T03:47:05.593Z,994.03
2018-03-15T03:48:05.570Z,993.99
2018-03-15T03:49:05.547Z,993.99
2018-03-15T03:50:05.533Z,993.96
2018-03-15T03:51:05.501Z,993.95
2018-03-15T03:52:05.482Z,993.92
2018-03-15T03:53:05.455Z,993.95
2018-03-15T03:54:05.432Z,993.93
2018-03-15T03:55:05.411Z,993.91
2018-03-15T03:56:05.391Z,993.89
2018-03-15T03:57:05.366Z,993.92
2018-03-15T03:58:05.341Z,993.91
2018-03-15T03:59:05.322Z,993.89
2018-03-15T04:00:05.295Z,993.93
2018-03-15T04:01:05.276Z,993.85
2018-03-15T04:02:05.251Z,993.87
2018-03-15T04:03:05.227Z,993.83
2018-03-15T04:04:05.208Z,993.84
2018-03-15T04:05:05.182Z,993.81
2018-03-15T04:06:05.161Z,993.86
2018-03-15T04:07:05.138Z,993.86
2018-03-15T04:08:05.116Z,993.8
2018-03-15T04:09:05.091Z,993.81
2018-03-15T04:10:05.069Z,993.89
2018-03-15T04:11:05.045Z,993.84
2018-03-15T04:12:05.024Z,993.84
2018-03-15T04:13:05.000Z,993.81
2018-03-15T04:14:04.976Z,993.84
2018-03-15T04:15:04.954Z,993.83
2018-03-15T04:16:04.932Z,993.8
2018-03-15T04:17:04.909Z,993.79
2018-03-15T04:18:04.889Z,993.81
2018-03-15T04:19:04.867Z,993.81
2018-03-15T04:20:04.840Z,993.75
2018-03-15T04:21:04.817Z,993.79
2018-03-15T04:22:04.795Z,993.76
2018-03-15T04:23:04.819Z,993.77
2018-03-15T04:24:04.750Z,993.78
2018-03-15T04:25:04.730Z,993.76
2018-03-15T04:26:04.704Z,993.75
2018-03-15T04:27:04.684Z,993.76
2018-03-15T04:28:04.657Z,993.78
2018-03-15T04:29:04.638Z,993.69
2018-03-15T04:30:04.613Z,993.67
2018-03-15T04:31:04.593Z,993.6
2018-03-15T04:32:04.567Z,993.62
2018-03-15T04:33:04.545Z,993.57
2018-03-15T04:34:04.521Z,993.55
2018-03-15T04:35:04.500Z,993.53
2018-03-15T04:36:04.476Z,993.53
2018-03-15T04:37:04.453Z,993.56
2018-03-15T04:38:04.436Z,993.52
2018-03-15T04:39:04.408Z,993.52
2018-03-15T04:40:04.389Z,993.51
2018-03-15T04:41:04.365Z,993.49
2018-03-15T04:42:04.338Z,993.43
2018-03-15T04:43:04.316Z,993.46
2018-03-15T04:44:04.293Z,993.44
2018-03-15T04:45:04.270Z,993.45
2018-03-15T04:46:04.247Z,993.42
2018-03-15T04:47:04.223Z,993.37
2018-03-15T04:48:04.202Z,993.39
2018-03-15T04:49:04.180Z,993.43
2018-03-15T04:50:04.159Z,993.45
2018-03-15T04:51:04.135Z,993.42
2018-03-15T04:52:04.115Z,993.4
2018-03-15T04:53:04.086Z,993.39
2018-03-15T04:54:04.064Z,993.39
2018-03-15T04:55:04.042Z,993.37
2018-03-15T04:56:04.020Z,993.33
2018-03-15T04:57:03.993Z,993.34
2018-03-15T04:58:03.972Z,993.34
2018-03-15T04:59:03.949Z,993.3
2018-03-15T05:00:03.925Z,993.3
2018-03-15T05:01:03.909Z,993.33
2018-03-15T05:02:03.882Z,993.29
2018-03-15T05:03:03.858Z,993.29
2018-03-15T05:04:03.835Z,993.3
2018-03-15T05:05:03.818Z,993.34
2018-03-15T05:06:03.791Z,993.31
2018-03-15T05:07:03.766Z,993.27
2018-03-15T05:08:03.745Z,993.28
2018-03-15T05:09:03.721Z,993.27
2018-03-15T05:10:03.698Z,993.29
2018-03-15T05:11:03.696Z,993.29
2018-03-15T05:12:03.652Z,993.26
2018-03-15T05:13:03.629Z,993.22
2018-03-15T05:14:03.615Z,993.21
2018-03-15T05:15:03.582Z,993.21
2018-03-15T05:16:03.559Z,993.23
2018-03-15T05:17:03.540Z,993.19
2018-03-15T05:18:03.513Z,993.16
2018-03-15T05:19:03.493Z,993.16
2018-03-15T05:20:03.468Z,993.11
2018-03-15T05:21:03.446Z,993.08
2018-03-15T05:22:03.424Z,993.08
2018-03-15T05:23:03.398Z,993.07
2018-03-15T05:24:03.376Z,993.08
2018-03-15T05:25:03.354Z,993.03
2018-03-15T05:26:03.331Z,993.02
2018-03-15T05:27:03.308Z,992.98
2018-03-15T05:28:03.287Z,992.97
2018-03-15T05:29:03.264Z,992.95
2018-03-15T05:30:03.241Z,992.9
2018-03-15T05:31:03.217Z,992.87
2018-03-15T05:32:03.195Z,992.8
2018-03-15T05:33:03.172Z,992.82
2018-03-15T05:34:03.154Z,992.82
2018-03-15T05:35:03.127Z,992.79
2018-03-15T05:36:03.103Z,992.76
2018-03-15T05:37:03.080Z,992.74
2018-03-15T05:38:03.056Z,992.7
2018-03-15T05:39:03.038Z,992.66
2018-03-15T05:40:03.009Z,992.64
2018-03-15T05:41:02.990Z,992.58
2018-03-15T05:42:02.963Z,992.57
2018-03-15T05:43:02.944Z,992.54
2018-03-15T05:44:02.918Z,992.5
2018-03-15T05:45:02.906Z,992.51
2018-03-15T05:46:03.081Z,992.45
2018-03-15T05:47:02.852Z,992.43
2018-03-15T05:48:02.826Z,992.48
2018-03-15T05:49:02.807Z,992.48
2018-03-15T05:50:02.782Z,992.49
2018-03-15T05:51:02.759Z,992.46
2018-03-15T05:52:02.736Z,992.52
2018-03-15T05:53:02.714Z,992.51
2018-03-15T05:54:02.690Z,992.49
2018-03-15T05:55:02.668Z,992.45
2018-03-15T05:56:02.646Z,992.47
2018-03-15T05:57:02.620Z,992.43
2018-03-15T05:58:02.621Z,992.47
2018-03-15T05:59:02.588Z,992.41
2018-03-15T06:00:02.559Z,992.39
2018-03-15T06:01:02.531Z,992.37
2018-03-15T06:02:02.506Z,992.32
2018-03-15T06:03:02.485Z,992.36
2018-03-15T06:04:02.466Z,992.32
2018-03-15T06:05:02.446Z,992.3
2018-03-15T06:06:02.415Z,992.29
2018-03-15T06:07:02.394Z,992.31
2018-03-15T06:08:02.370Z,992.27
2018-03-15T06:09:02.348Z,992.25
2018-03-15T06:10:02.324Z,992.3
2018-03-15T06:11:02.304Z,992.25
2018-03-15T06:12:02.281Z,992.22
2018-03-15T06:13:02.256Z,992.3
2018-03-15T06:14:02.233Z,992.27
2018-03-15T06:15:02.212Z,992.32
2018-03-15T06:16:02.189Z,992.26
2018-03-15T06:17:02.165Z,992.28
2018-03-15T06:18:02.141Z,992.22
2018-03-15T06:19:02.120Z,992.29
2018-03-15T06:20:02.095Z,992.24
2018-03-15T06:21:02.078Z,992.27
2018-03-15T06:22:02.055Z,992.26
2018-03-15T06:23:02.031Z,992.32
2018-03-15T06:24:02.004Z,992.31
2018-03-15T06:25:01.982Z,992.33
2018-03-15T06:26:01.962Z,992.34
2018-03-15T06:27:01.940Z,992.36
2018-03-15T06:28:01.916Z,992.34
2018-03-15T06:29:01.892Z,992.38
2018-03-15T06:30:01.873Z,992.35
2018-03-15T06:31:01.851Z,992.35
2018-03-15T06:32:01.827Z,992.34
2018-03-15T06:33:01.805Z,992.29
2018-03-15T06:34:01.830Z,992.27
2018-03-15T06:35:01.768Z,992.26
2018-03-15T06:36:01.735Z,992.22
2018-03-15T06:37:01.717Z,992.24
2018-03-15T06:38:01.691Z,992.22
2018-03-15T06:39:01.669Z,992.18
2018-03-15T06:40:01.648Z,992.18
2018-03-15T06:41:01.623Z,992.21
2018-03-15T06:42:01.600Z,992.14
2018-03-15T06:43:01.578Z,992.14
2018-03-15T06:44:01.558Z,992.13
2018-03-15T06:45:01.535Z,992.1
2018-03-15T06:46:01.510Z,992.11
2018-03-15T06:47:01.489Z,992.09
2018-03-15T06:48:01.467Z,992.04
2018-03-15T06:49:01.444Z,992.04
2018-03-15T06:50:01.427Z,991.98
2018-03-15T06:51:01.401Z,991.99
2018-03-15T06:52:01.378Z,991.98
2018-03-15T06:53:01.353Z,991.96
2018-03-15T06:54:01.336Z,991.94
2018-03-15T06:55:01.317Z,991.97
2018-03-15T06:56:01.290Z,992.01
2018-03-15T06:57:01.268Z,992.04
2018-03-15T06:58:01.245Z,992.01
2018-03-15T06:59:01.223Z,992.02
2018-03-15T07:00:01.202Z,992.06
2018-03-15T07:01:01.186Z,992.02
2018-03-15T07:02:01.156Z,992.02
2018-03-15T07:03:01.135Z,992.06
2018-03-15T07:04:01.113Z,992.01
2018-03-15T07:05:01.091Z,992
2018-03-15T07:06:01.072Z,992
2018-03-15T07:07:01.063Z,991.99
2018-03-15T07:08:01.025Z,991.99
2018-03-15T07:09:01.004Z,991.92
2018-03-15T07:10:00.982Z,991.9
2018-03-15T07:11:00.958Z,991.91
2018-03-15T07:12:00.937Z,991.88
2018-03-15T07:13:00.916Z,991.88
2018-03-15T07:14:00.896Z,991.89
2018-03-15T07:15:00.873Z,991.91
2018-03-15T07:16:00.851Z,991.83
2018-03-15T07:17:00.829Z,991.85
2018-03-15T07:18:00.811Z,991.84
2018-03-15T07:19:00.787Z,991.82
2018-03-15T07:20:00.766Z,991.89
2018-03-15T07:21:00.745Z,991.9
2018-03-15T07:22:00.723Z,991.91
2018-03-15T07:23:00.700Z,991.87
2018-03-15T07:24:00.680Z,991.88
2018-03-15T07:25:00.660Z,991.95
2018-03-15T07:26:00.644Z,991.95
2018-03-15T07:27:00.614Z,991.94
2018-03-15T07:28:00.595Z,991.89
2018-03-15T07:29:00.574Z,991.96
2018-03-15T07:30:00.554Z,992
2018-03-15T07:31:00.531Z,991.99
2018-03-15T07:32:00.510Z,992.02
2018-03-15T07:33:00.489Z,991.92
2018-03-15T07:34:00.468Z,991.93
2018-03-15T07:35:00.450Z,991.93
2018-03-15T07:36:00.427Z,991.92
2018-03-15T07:37:00.407Z,991.96
2018-03-15T07:38:00.384Z,991.97
2018-03-15T07:39:00.363Z,991.99
2018-03-15T07:40:00.342Z,992.04
2018-03-15T07:41:00.324Z,992.07
2018-03-15T07:42:00.301Z,992.12
2018-03-15T07:43:00.280Z,992.17
2018-03-15T07:44:00.262Z,992.19
2018-03-15T07:45:00.238Z,992.19
2018-03-15T07:46:00.217Z,992.26
2018-03-15T07:47:00.196Z,992.25
2018-03-15T07:48:00.177Z,992.29
2018-03-15T07:49:00.155Z,992.32
2018-03-15T07:50:00.134Z,992.36
2018-03-15T07:51:00.115Z,992.32
2018-03-15T07:52:00.095Z,992.36
2018-03-15T07:53:00.073Z,992.41
2018-03-15T07:54:00.054Z,992.33
2018-03-15T07:55:00.033Z,992.45
2018-03-15T07:56:00.040Z,992.43
2018-03-15T07:56:59.995Z,992.39
2018-03-15T07:57:59.972Z,992.4
2018-03-15T07:58:59.951Z,992.33
2018-03-15T07:59:59.931Z,992.31
2018-03-15T08:00:59.939Z,992.33
2018-03-15T08:01:59.919Z,992.32
2018-03-15T08:02:59.871Z,992.3
2018-03-15T08:03:59.851Z,992.29
2018-03-15T08:04:59.830Z,992.25
2018-03-15T08:05:59.809Z,992.2
2018-03-15T08:06:59.795Z,992.2
2018-03-15T08:07:59.774Z,992.19
2018-03-15T08:08:59.751Z,992.23
2018-03-15T08:09:59.731Z,992.25
2018-03-15T08:10:59.762Z,992.29
2018-03-15T08:11:59.694Z,992.3
2018-03-15T08:12:59.673Z,992.31
2018-03-15T08:13:59.652Z,992.31
2018-03-15T08:14:59.633Z,992.35
2018-03-15T08:15:59.614Z,992.31
2018-03-15T08:16:59.592Z,992.31
2018-03-15T08:17:59.573Z,992.32
2018-03-15T08:18:59.554Z,992.31
2018-03-15T08:19:59.535Z,992.32
2018-03-15T08:20:59.567Z,992.41
2018-03-15T08:21:59.503Z,992.49
2018-03-15T08:22:59.477Z,992.47
2018-03-15T08:23:59.457Z,992.41
2018-03-15T08:24:59.439Z,992.3
2018-03-15T08:25:59.719Z,992.26
2018-03-15T08:26:59.402Z,992.24
2018-03-15T08:27:59.383Z,992.29
2018-03-15T08:28:59.365Z,992.22
2018-03-15T08:29:59.400Z,992.19
2018-03-15T08:30:59.330Z,992.13
2018-03-15T08:31:59.313Z,992.17
2018-03-15T08:32:59.296Z,992.1
2018-03-15T08:33:59.319Z,992.12
2018-03-15T08:34:59.267Z,992.14
2018-03-15T08:35:59.250Z,992.1
2018-03-15T08:36:59.233Z,992.08
2018-03-15T08:37:59.218Z,992.14
2018-03-15T08:38:59.201Z,992.24
2018-03-15T08:39:59.187Z,992.26
2018-03-15T08:40:59.207Z,992.22
2018-03-15T08:41:59.159Z,992.23
2018-03-15T08:42:59.143Z,992.31
2018-03-15T08:43:59.128Z,992.19
2018-03-15T08:44:59.117Z,992.22
2018-03-15T08:45:59.103Z,992.19
2018-03-15T08:46:59.095Z,992.26
2018-03-15T08:47:59.080Z,992.15
2018-03-15T08:48:59.063Z,992.14
2018-03-15T08:49:59.050Z,992.25
2018-03-15T08:50:59.037Z,992.2
2018-03-15T08:51:59.024Z,992.29
2018-03-15T08:52:59.012Z,992.16
2018-03-15T08:53:58.999Z,992.15
2018-03-15T08:54:58.991Z,992.2
2018-03-15T08:55:58.975Z,992.18
2018-03-15T08:56:59.015Z,992.17
2018-03-15T08:57:58.952Z,992.12
2018-03-15T08:58:58.939Z,992.05
2018-03-15T08:59:58.932Z,992.05
2018-03-15T09:00:58.920Z,992.07
2018-03-15T09:01:58.907Z,992.04
2018-03-15T09:02:58.897Z,992.08
2018-03-15T09:03:58.887Z,992.09
2018-03-15T09:04:58.892Z,992.09
2018-03-15T09:05:58.942Z,992.03
2018-03-15T09:06:58.853Z,992.01
2018-03-15T09:07:58.993Z,992.06
2018-03-15T09:08:58.832Z,992.04
2018-03-15T09:09:58.822Z,992.03
2018-03-15T09:10:58.813Z,991.97
2018-03-15T09:11:58.804Z,991.83
2018-03-15T09:12:58.793Z,991.74
2018-03-15T09:13:58.781Z,991.7
2018-03-15T09:14:58.775Z,991.78
2018-03-15T09:15:58.760Z,991.75
2018-03-15T09:16:58.768Z,991.79
2018-03-15T09:17:58.740Z,991.8
2018-03-15T09:18:58.762Z,991.69
2018-03-15T09:19:58.719Z,991.74
2018-03-15T09:20:58.708Z,991.73
2018-03-15T09:21:58.697Z,991.78
2018-03-15T09:22:58.686Z,991.85
2018-03-15T09:23:58.676Z,991.81
2018-03-15T09:24:58.665Z,991.75
2018-03-15T09:25:58.656Z,991.71
2018-03-15T09:26:58.645Z,991.71
2018-03-15T09:27:58.637Z,991.66
2018-03-15T09:28:58.626Z,991.61
2018-03-15T09:29:58.616Z,991.59
2018-03-15T09:30:58.604Z,991.52
2018-03-15T09:31:58.595Z,991.48
2018-03-15T09:32:58.587Z,991.43
2018-03-15T09:33:58.576Z,991.5
2018-03-15T09:34:58.622Z,991.45
2018-03-15T09:35:58.556Z,991.42
2018-03-15T09:36:58.546Z,991.36
2018-03-15T09:37:58.538Z,991.32
2018-03-15T09:38:58.526Z,991.33
2018-03-15T09:39:58.517Z,991.32
2018-03-15T09:40:58.503Z,991.27
2018-03-15T09:41:58.495Z,991.29
2018-03-15T09:42:58.482Z,991.3
2018-03-15T09:43:58.473Z,991.25
2018-03-15T09:44:58.460Z,991.27
2018-03-15T09:45:58.449Z,991.25
2018-03-15T09:46:58.638Z,991.25
2018-03-15T09:47:58.426Z,991.16
2018-03-15T09:48:58.414Z,991.19
2018-03-15T09:49:58.404Z,991.19
2018-03-15T09:50:58.397Z,991.15
2018-03-15T09:51:58.379Z,991.16
2018-03-15T09:52:58.368Z,991.1
2018-03-15T09:53:58.355Z,991.08
2018-03-15T09:54:58.347Z,991.12
2018-03-15T09:55:58.332Z,991.08
2018-03-15T09:56:58.319Z,991.05
2018-03-15T09:57:58.314Z,991.09
2018-03-15T09:58:58.295Z,991.04
2018-03-15T09:59:58.288Z,991.07
2018-03-15T10:00:58.274Z,991.11
2018-03-15T10:01:58.261Z,991.07
2018-03-15T10:02:58.247Z,991.02
2018-03-15T10:03:58.236Z,990.94
2018-03-15T10:04:58.225Z,991
2018-03-15T10:05:58.214Z,991
2018-03-15T10:06:58.205Z,990.9
2018-03-15T10:07:58.212Z,990.9
2018-03-15T10:08:58.227Z,990.91
2018-03-15T10:09:58.165Z,990.87
2018-03-15T10:10:58.152Z,990.89
2018-03-15T10:11:58.141Z,990.89
2018-03-15T10:12:58.129Z,990.87
2018-03-15T10:13:58.117Z,990.83
2018-03-15T10:14:58.105Z,990.84
2018-03-15T10:15:58.093Z,990.85
2018-03-15T10:16:58.082Z,990.84
2018-03-15T10:17:58.069Z,990.86
2018-03-15T10:18:58.060Z,990.81
2018-03-15T10:19:58.047Z,990.78
2018-03-15T10:20:58.036Z,990.79
2018-03-15T10:21:58.024Z,990.73
2018-03-15T10:22:58.016Z,990.72
2018-03-15T10:23:58.003Z,990.71
2018-03-15T10:24:57.997Z,990.67
2018-03-15T10:25:57.979Z,990.62
2018-03-15T10:26:57.971Z,990.7
2018-03-15T10:27:57.960Z,990.65
2018-03-15T10:28:57.947Z,990.68
2018-03-15T10:29:57.979Z,990.7
2018-03-15T10:30:57.928Z,990.6
2018-03-15T10:31:57.913Z,990.65
2018-03-15T10:32:57.901Z,990.58
2018-03-15T10:33:57.890Z,990.61
2018-03-15T10:34:57.879Z,990.57
2018-03-15T10:35:57.869Z,990.64
2018-03-15T10:36:57.861Z,990.63
2018-03-15T10:37:57.851Z,990.57
2018-03-15T10:38:57.838Z,990.57
2018-03-15T10:39:57.825Z,990.48
2018-03-15T10:40:57.815Z,990.52
2018-03-15T10:41:57.806Z,990.49
2018-03-15T10:42:57.796Z,990.51
2018-03-15T10:43:57.786Z,990.52
2018-03-15T10:44:57.778Z,990.53
2018-03-15T10:45:57.770Z,990.51
2018-03-15T10:46:57.755Z,990.49
2018-03-15T10:47:57.798Z,990.49
2018-03-15T10:48:57.739Z,990.5
2018-03-15T10:49:57.728Z,990.48
2018-03-15T10:50:57.719Z,990.47
2018-03-15T10:51:57.713Z,990.42
2018-03-15T10:52:57.702Z,990.38
2018-03-15T10:53:57.691Z,990.41
2018-03-15T10:54:57.682Z,990.46
2018-03-15T10:55:57.673Z,990.37
2018-03-15T10:56:57.665Z,990.39
2018-03-15T10:57:57.699Z,990.44
2018-03-15T10:58:57.648Z,990.41
2018-03-15T10:59:57.692Z,990.36
2018-03-15T11:00:57.631Z,990.31
2018-03-15T11:01:57.622Z,990.27
2018-03-15T11:02:57.613Z,990.27
2018-03-15T11:03:57.618Z,990.32
2018-03-15T11:04:57.600Z,990.16
2018-03-15T11:05:57.594Z,990.19
2018-03-15T11:06:57.580Z,990.26
2018-03-15T11:07:57.573Z,990.25
2018-03-15T11:08:57.568Z,990.17
2018-03-15T11:09:57.555Z,990.29
2018-03-15T11:10:57.548Z,990.29
2018-03-15T11:11:57.540Z,990.3
2018-03-15T11:12:57.531Z,990.32
2018-03-15T11:13:57.523Z,990.28
2018-03-15T11:14:57.514Z,990.25
2018-03-15T11:15:57.506Z,990.26
2018-03-15T11:16:57.499Z,990.22
2018-03-15T11:17:57.488Z,990.2
2018-03-15T11:18:57.482Z,990.33
2018-03-15T11:19:57.480Z,990.24
2018-03-15T11:20:57.468Z,990.22
2018-03-15T11:21:57.460Z,990.23
2018-03-15T11:22:57.452Z,990.25
2018-03-15T11:23:57.525Z,990.21
2018-03-15T11:24:57.438Z,990.18
2018-03-15T11:25:57.432Z,990.21
2018-03-15T11:26:57.423Z,990.2
2018-03-15T11:27:57.415Z,990.19
2018-03-15T11:28:57.410Z,990.23
2018-03-15T11:29:57.406Z,990.21
2018-03-15T11:30:57.404Z,990.19
2018-03-15T11:31:57.389Z,990.22
2018-03-15T11:32:57.385Z,990.2
2018-03-15T11:33:57.378Z,990.22
2018-03-15T11:34:57.372Z,990.18
2018-03-15T11:35:57.366Z,990.17
2018-03-15T11:36:57.359Z,990.19
2018-03-15T11:37:57.358Z,990.14
2018-03-15T11:38:57.350Z,990.13
2018-03-15T11:39:57.347Z,990.09
2018-03-15T11:40:57.342Z,990.04
2018-03-15T11:41:57.339Z,990.1
2018-03-15T11:42:57.331Z,990.01
2018-03-15T11:43:57.328Z,989.94
2018-03-15T11:44:57.322Z,989.95
2018-03-15T11:45:57.318Z,989.85
2018-03-15T11:46:57.515Z,989.84
2018-03-15T11:47:57.313Z,989.82
2018-03-15T11:48:57.301Z,989.85
2018-03-15T11:49:57.298Z,989.79
2018-03-15T11:50:57.294Z,989.81
2018-03-15T11:51:57.288Z,989.77
2018-03-15T11:52:57.283Z,989.75
2018-03-15T11:53:57.278Z,989.73
2018-03-15T11:54:57.278Z,989.67
2018-03-15T11:55:57.267Z,989.72
2018-03-15T11:56:57.262Z,989.69
2018-03-15T11:57:57.259Z,989.67
2018-03-15T11:58:57.267Z,989.65
2018-03-15T11:59:57.248Z,989.64
2018-03-15T12:00:57.242Z,989.68
2018-03-15T12:01:57.239Z,989.66
2018-03-15T12:02:57.234Z,989.74
2018-03-15T12:03:57.229Z,989.75
2018-03-15T12:04:57.227Z,989.72
2018-03-15T12:05:57.220Z,989.73
2018-03-15T12:06:57.218Z,989.72
2018-03-15T12:07:57.214Z,989.75
2018-03-15T12:08:57.207Z,989.68
2018-03-15T12:09:57.205Z,989.72
2018-03-15T12:10:57.200Z,989.76
2018-03-15T12:11:57.196Z,989.64
2018-03-15T12:12:57.193Z,989.74
2018-03-15T12:13:57.192Z,989.73
2018-03-15T12:14:57.186Z,989.71
2018-03-15T12:15:57.184Z,989.63
2018-03-15T12:16:57.180Z,989.69
2018-03-15T12:17:57.175Z,989.7
2018-03-15T12:18:57.173Z,989.64
2018-03-15T12:19:57.171Z,989.64
2018-03-15T12:20:57.166Z,989.72
2018-03-15T12:21:57.162Z,989.74
2018-03-15T12:22:57.160Z,989.8
2018-03-15T12:23:57.156Z,989.76
2018-03-15T12:24:57.152Z,989.78
2018-03-15T12:25:57.198Z,989.78
2018-03-15T12:26:57.146Z,989.81
2018-03-15T12:27:57.143Z,989.79
2018-03-15T12:28:57.139Z,989.77
2018-03-15T12:29:57.134Z,989.69
2018-03-15T12:30:57.133Z,989.65